sensor_id;sensor_type;location;lat;lon;timestamp;P1;durP1;ratioP1;P2;durP2;ratioP2
22166;SDS011;11249;52.468;13.776;2023-07-16T00:00:39;6.68;;;4.80;;
22166;SDS011;11249;52.468;13.776;2023-07-16T00:03:06;8.93;;;5.13;;
22166;SDS011;11249;52.468;13.776;2023-07-16T00:05:32;5.95;;;4.57;;
22166;SDS011;11249;52.468;13.776;2023-07-16T00:07:59;5.78;;;5.18;;
22166;SDS011;11249;52.468;13.776;2023-07-16T00:10:26;7.65;;;5.18;;
22166;SDS011;11249;52.468;13.776;2023-07-16T00:12:53;6.32;;;5.10;;
22166;SDS011;11249;52.468;13.776;2023-07-16T00:15:19;6.85;;;5.40;;
22166;SDS011;11249;52.468;13.776;2023-07-16T00:17:46;6.00;;;5.00;;
22166;SDS011;11249;52.468;13.776;2023-07-16T00:20:13;7.82;;;4.93;;
22166;SDS011;11249;52.468;13.776;2023-07-16T00:22:40;6.85;;;5.53;;
22166;SDS011;11249;52.468;13.776;2023-07-16T00:25:06;8.48;;;4.93;;
22166;SDS011;11249;52.468;13.776;2023-07-16T00:27:33;8.93;;;5.47;;
22166;SDS011;11249;52.468;13.776;2023-07-16T00:30:00;5.95;;;5.35;;
22166;SDS011;11249;52.468;13.776;2023-07-16T00:32:27;8.13;;;5.45;;
22166;SDS011;11249;52.468;13.776;2023-07-16T00:34:53;6.97;;;5.82;;
22166;SDS011;11249;52.468;13.776;2023-07-16T00:37:20;9.00;;;6.25;;
22166;SDS011;11249;52.468;13.776;2023-07-16T00:39:47;6.32;;;5.68;;
22166;SDS011;11249;52.468;13.776;2023-07-16T00:42:14;8.85;;;5.90;;
22166;SDS011;11249;52.468;13.776;2023-07-16T00:44:40;7.82;;;6.28;;
22166;SDS011;11249;52.468;13.776;2023-07-16T00:47:08;6.95;;;6.35;;
22166;SDS011;11249;52.468;13.776;2023-07-16T00:49:36;8.55;;;6.05;;
22166;SDS011;11249;52.468;13.776;2023-07-16T00:52:04;7.28;;;5.78;;
22166;SDS011;11249;52.468;13.776;2023-07-16T00:54:33;5.45;;;4.95;;
22166;SDS011;11249;52.468;13.776;2023-07-16T00:57:00;5.85;;;4.95;;
22166;SDS011;11249;52.468;13.776;2023-07-16T00:59:27;5.55;;;4.97;;
22166;SDS011;11249;52.468;13.776;2023-07-16T01:01:53;4.90;;;4.50;;
22166;SDS011;11249;52.468;13.776;2023-07-16T01:04:20;5.32;;;4.70;;
22166;SDS011;11249;52.468;13.776;2023-07-16T01:06:48;5.95;;;4.75;;
22166;SDS011;11249;52.468;13.776;2023-07-16T01:09:19;7.30;;;5.15;;
22166;SDS011;11249;52.468;13.776;2023-07-16T01:11:47;5.60;;;5.07;;
22166;SDS011;11249;52.468;13.776;2023-07-16T01:14:16;6.32;;;4.60;;
22166;SDS011;11249;52.468;13.776;2023-07-16T01:16:44;8.82;;;5.63;;
22166;SDS011;11249;52.468;13.776;2023-07-16T01:19:11;6.72;;;5.25;;
22166;SDS011;11249;52.468;13.776;2023-07-16T01:21:45;5.85;;;5.00;;
22166;SDS011;11249;52.468;13.776;2023-07-16T01:27:29;7.47;;;5.70;;
22166;SDS011;11249;52.468;13.776;2023-07-16T01:30:08;8.15;;;5.78;;
22166;SDS011;11249;52.468;13.776;2023-07-16T01:32:39;9.15;;;5.63;;
22166;SDS011;11249;52.468;13.776;2023-07-16T01:35:06;8.48;;;5.72;;
22166;SDS011;11249;52.468;13.776;2023-07-16T01:37:34;6.97;;;6.30;;
22166;SDS011;11249;52.468;13.776;2023-07-16T01:40:02;8.38;;;6.07;;
22166;SDS011;11249;52.468;13.776;2023-07-16T01:42:32;8.57;;;6.10;;
22166;SDS011;11249;52.468;13.776;2023-07-16T01:44:59;6.07;;;5.43;;
22166;SDS011;11249;52.468;13.776;2023-07-16T01:50:14;7.47;;;5.68;;
22166;SDS011;11249;52.468;13.776;2023-07-16T01:52:40;9.60;;;5.55;;
22166;SDS011;11249;52.468;13.776;2023-07-16T01:55:07;6.07;;;5.47;;
22166;SDS011;11249;52.468;13.776;2023-07-16T01:57:34;6.03;;;5.35;;
22166;SDS011;11249;52.468;13.776;2023-07-16T02:00:01;8.02;;;6.15;;
22166;SDS011;11249;52.468;13.776;2023-07-16T02:02:28;8.60;;;6.75;;
22166;SDS011;11249;52.468;13.776;2023-07-16T02:04:55;9.05;;;6.80;;
22166;SDS011;11249;52.468;13.776;2023-07-16T02:07:22;8.25;;;5.75;;
22166;SDS011;11249;52.468;13.776;2023-07-16T02:09:50;8.85;;;6.25;;
22166;SDS011;11249;52.468;13.776;2023-07-16T02:12:17;7.20;;;5.43;;
22166;SDS011;11249;52.468;13.776;2023-07-16T02:14:44;6.00;;;5.07;;
22166;SDS011;11249;52.468;13.776;2023-07-16T02:17:10;8.38;;;5.10;;
22166;SDS011;11249;52.468;13.776;2023-07-16T02:19:37;7.95;;;5.25;;
22166;SDS011;11249;52.468;13.776;2023-07-16T02:22:04;8.63;;;4.65;;
22166;SDS011;11249;52.468;13.776;2023-07-16T02:24:31;5.72;;;5.22;;
22166;SDS011;11249;52.468;13.776;2023-07-16T02:26:57;8.15;;;5.20;;
22166;SDS011;11249;52.468;13.776;2023-07-16T02:29:24;6.93;;;5.00;;
22166;SDS011;11249;52.468;13.776;2023-07-16T02:31:51;5.68;;;4.57;;
22166;SDS011;11249;52.468;13.776;2023-07-16T02:34:17;6.38;;;4.72;;
22166;SDS011;11249;52.468;13.776;2023-07-16T02:36:44;8.80;;;4.40;;
22166;SDS011;11249;52.468;13.776;2023-07-16T02:39:11;6.75;;;4.32;;
22166;SDS011;11249;52.468;13.776;2023-07-16T02:41:37;7.40;;;4.47;;
22166;SDS011;11249;52.468;13.776;2023-07-16T02:44:05;5.72;;;4.47;;
22166;SDS011;11249;52.468;13.776;2023-07-16T02:46:32;6.22;;;4.75;;
22166;SDS011;11249;52.468;13.776;2023-07-16T02:49:00;5.10;;;4.30;;
22166;SDS011;11249;52.468;13.776;2023-07-16T02:51:29;4.93;;;4.43;;
22166;SDS011;11249;52.468;13.776;2023-07-16T02:53:55;5.07;;;3.80;;
22166;SDS011;11249;52.468;13.776;2023-07-16T02:56:22;4.80;;;3.70;;
22166;SDS011;11249;52.468;13.776;2023-07-16T02:58:49;6.38;;;4.15;;
22166;SDS011;11249;52.468;13.776;2023-07-16T03:01:15;5.35;;;3.70;;
22166;SDS011;11249;52.468;13.776;2023-07-16T03:03:42;5.20;;;4.00;;
22166;SDS011;11249;52.468;13.776;2023-07-16T03:06:09;5.18;;;3.55;;
22166;SDS011;11249;52.468;13.776;2023-07-16T03:08:36;8.25;;;3.47;;
22166;SDS011;11249;52.468;13.776;2023-07-16T03:11:03;5.00;;;2.85;;
22166;SDS011;11249;52.468;13.776;2023-07-16T03:13:29;5.30;;;3.33;;
22166;SDS011;11249;52.468;13.776;2023-07-16T03:15:56;3.63;;;3.08;;
22166;SDS011;11249;52.468;13.776;2023-07-16T03:18:27;5.20;;;3.20;;
22166;SDS011;11249;52.468;13.776;2023-07-16T03:20:58;3.33;;;2.83;;
22166;SDS011;11249;52.468;13.776;2023-07-16T03:23:26;4.22;;;2.92;;
22166;SDS011;11249;52.468;13.776;2023-07-16T03:25:52;4.10;;;2.97;;
22166;SDS011;11249;52.468;13.776;2023-07-16T03:28:19;3.17;;;2.80;;
22166;SDS011;11249;52.468;13.776;2023-07-16T03:30:49;4.95;;;2.67;;
22166;SDS011;11249;52.468;13.776;2023-07-16T03:33:17;4.40;;;2.80;;
22166;SDS011;11249;52.468;13.776;2023-07-16T03:35:46;2.67;;;2.47;;
22166;SDS011;11249;52.468;13.776;2023-07-16T03:38:13;3.25;;;2.83;;
22166;SDS011;11249;52.468;13.776;2023-07-16T03:40:46;4.20;;;2.67;;
22166;SDS011;11249;52.468;13.776;2023-07-16T03:43:17;4.72;;;2.70;;
22166;SDS011;11249;52.468;13.776;2023-07-16T03:45:44;3.53;;;2.75;;
22166;SDS011;11249;52.468;13.776;2023-07-16T03:48:11;2.63;;;2.42;;
22166;SDS011;11249;52.468;13.776;2023-07-16T03:50:38;6.82;;;2.92;;
22166;SDS011;11249;52.468;13.776;2023-07-16T03:53:04;4.68;;;2.60;;
22166;SDS011;11249;52.468;13.776;2023-07-16T03:55:31;3.08;;;2.78;;
22166;SDS011;11249;52.468;13.776;2023-07-16T03:57:58;2.60;;;2.40;;
22166;SDS011;11249;52.468;13.776;2023-07-16T04:00:25;3.05;;;2.70;;
22166;SDS011;11249;52.468;13.776;2023-07-16T04:02:51;5.38;;;2.83;;
22166;SDS011;11249;52.468;13.776;2023-07-16T04:05:18;6.38;;;2.92;;
22166;SDS011;11249;52.468;13.776;2023-07-16T04:07:49;4.75;;;3.47;;
22166;SDS011;11249;52.468;13.776;2023-07-16T04:10:16;4.43;;;3.45;;
22166;SDS011;11249;52.468;13.776;2023-07-16T04:12:43;5.45;;;3.63;;
22166;SDS011;11249;52.468;13.776;2023-07-16T04:15:09;4.50;;;3.25;;
22166;SDS011;11249;52.468;13.776;2023-07-16T04:17:37;4.43;;;4.03;;
22166;SDS011;11249;52.468;13.776;2023-07-16T04:20:04;4.40;;;4.00;;
22166;SDS011;11249;52.468;13.776;2023-07-16T04:22:33;4.30;;;4.00;;
22166;SDS011;11249;52.468;13.776;2023-07-16T04:25:02;4.93;;;4.10;;
22166;SDS011;11249;52.468;13.776;2023-07-16T04:27:29;6.20;;;4.88;;
22166;SDS011;11249;52.468;13.776;2023-07-16T04:29:56;7.90;;;4.90;;
22166;SDS011;11249;52.468;13.776;2023-07-16T04:32:23;5.65;;;4.57;;
22166;SDS011;11249;52.468;13.776;2023-07-16T04:34:49;7.78;;;4.95;;
22166;SDS011;11249;52.468;13.776;2023-07-16T04:37:16;5.68;;;5.05;;
22166;SDS011;11249;52.468;13.776;2023-07-16T04:39:43;6.47;;;4.93;;
22166;SDS011;11249;52.468;13.776;2023-07-16T04:42:10;6.80;;;5.35;;
22166;SDS011;11249;52.468;13.776;2023-07-16T04:44:36;7.93;;;5.68;;
22166;SDS011;11249;52.468;13.776;2023-07-16T04:47:03;5.85;;;5.20;;
22166;SDS011;11249;52.468;13.776;2023-07-16T04:49:31;6.90;;;5.40;;
22166;SDS011;11249;52.468;13.776;2023-07-16T04:52:00;6.93;;;5.20;;
22166;SDS011;11249;52.468;13.776;2023-07-16T04:54:34;7.63;;;5.77;;
22166;SDS011;11249;52.468;13.776;2023-07-16T04:57:05;7.50;;;5.28;;
22166;SDS011;11249;52.468;13.776;2023-07-16T04:59:34;5.78;;;5.28;;
22166;SDS011;11249;52.468;13.776;2023-07-16T05:02:04;6.55;;;5.45;;
22166;SDS011;11249;52.468;13.776;2023-07-16T05:04:32;6.20;;;5.68;;
22166;SDS011;11249;52.468;13.776;2023-07-16T05:07:03;8.18;;;6.15;;
22166;SDS011;11249;52.468;13.776;2023-07-16T05:09:30;6.82;;;5.60;;
22166;SDS011;11249;52.468;13.776;2023-07-16T05:11:57;6.65;;;5.75;;
22166;SDS011;11249;52.468;13.776;2023-07-16T05:14:25;8.40;;;5.82;;
22166;SDS011;11249;52.468;13.776;2023-07-16T05:16:53;8.82;;;5.18;;
22166;SDS011;11249;52.468;13.776;2023-07-16T05:19:21;8.90;;;5.55;;
22166;SDS011;11249;52.468;13.776;2023-07-16T05:21:48;7.68;;;5.88;;
22166;SDS011;11249;52.468;13.776;2023-07-16T05:24:14;7.63;;;5.80;;
22166;SDS011;11249;52.468;13.776;2023-07-16T05:26:41;7.10;;;6.22;;
22166;SDS011;11249;52.468;13.776;2023-07-16T05:29:08;7.75;;;5.93;;
22166;SDS011;11249;52.468;13.776;2023-07-16T05:31:35;9.00;;;6.32;;
22166;SDS011;11249;52.468;13.776;2023-07-16T05:34:02;8.45;;;5.93;;
22166;SDS011;11249;52.468;13.776;2023-07-16T05:36:29;7.97;;;6.07;;
22166;SDS011;11249;52.468;13.776;2023-07-16T05:38:55;6.68;;;6.00;;
22166;SDS011;11249;52.468;13.776;2023-07-16T05:41:22;6.00;;;5.57;;
22166;SDS011;11249;52.468;13.776;2023-07-16T05:43:49;7.93;;;5.57;;
22166;SDS011;11249;52.468;13.776;2023-07-16T05:46:16;5.55;;;5.03;;
22166;SDS011;11249;52.468;13.776;2023-07-16T05:48:43;8.40;;;5.30;;
22166;SDS011;11249;52.468;13.776;2023-07-16T05:51:10;9.38;;;6.07;;
22166;SDS011;11249;52.468;13.776;2023-07-16T05:53:37;10.13;;;6.10;;
22166;SDS011;11249;52.468;13.776;2023-07-16T05:56:03;5.55;;;5.05;;
22166;SDS011;11249;52.468;13.776;2023-07-16T05:58:30;5.50;;;4.93;;
22166;SDS011;11249;52.468;13.776;2023-07-16T06:00:57;5.85;;;4.50;;
22166;SDS011;11249;52.468;13.776;2023-07-16T06:03:23;6.00;;;5.40;;
22166;SDS011;11249;52.468;13.776;2023-07-16T06:05:50;5.18;;;4.70;;
22166;SDS011;11249;52.468;13.776;2023-07-16T06:08:17;6.93;;;4.95;;
22166;SDS011;11249;52.468;13.776;2023-07-16T06:10:44;6.22;;;4.68;;
22166;SDS011;11249;52.468;13.776;2023-07-16T06:13:11;5.22;;;4.72;;
22166;SDS011;11249;52.468;13.776;2023-07-16T06:15:38;4.75;;;3.70;;
22166;SDS011;11249;52.468;13.776;2023-07-16T06:18:05;8.32;;;4.97;;
22166;SDS011;11249;52.468;13.776;2023-07-16T06:20:32;7.05;;;4.93;;
22166;SDS011;11249;52.468;13.776;2023-07-16T06:22:59;4.78;;;4.18;;
22166;SDS011;11249;52.468;13.776;2023-07-16T06:25:26;6.13;;;4.57;;
22166;SDS011;11249;52.468;13.776;2023-07-16T06:27:52;4.60;;;4.20;;
22166;SDS011;11249;52.468;13.776;2023-07-16T06:30:19;6.43;;;4.60;;
22166;SDS011;11249;52.468;13.776;2023-07-16T06:32:46;4.78;;;4.18;;
22166;SDS011;11249;52.468;13.776;2023-07-16T06:35:13;4.85;;;4.32;;
22166;SDS011;11249;52.468;13.776;2023-07-16T06:37:40;7.25;;;4.30;;
22166;SDS011;11249;52.468;13.776;2023-07-16T06:40:07;9.32;;;4.45;;
22166;SDS011;11249;52.468;13.776;2023-07-16T06:42:34;4.22;;;3.80;;
22166;SDS011;11249;52.468;13.776;2023-07-16T06:45:01;5.60;;;3.72;;
22166;SDS011;11249;52.468;13.776;2023-07-16T06:47:27;6.88;;;3.90;;
22166;SDS011;11249;52.468;13.776;2023-07-16T06:49:54;6.50;;;3.70;;
22166;SDS011;11249;52.468;13.776;2023-07-16T06:52:22;4.25;;;3.85;;
22166;SDS011;11249;52.468;13.776;2023-07-16T06:54:50;4.80;;;3.53;;
22166;SDS011;11249;52.468;13.776;2023-07-16T06:57:17;6.47;;;3.85;;
22166;SDS011;11249;52.468;13.776;2023-07-16T06:59:44;6.25;;;3.63;;
22166;SDS011;11249;52.468;13.776;2023-07-16T07:02:11;5.25;;;3.30;;
22166;SDS011;11249;52.468;13.776;2023-07-16T07:04:38;6.82;;;3.97;;
22166;SDS011;11249;52.468;13.776;2023-07-16T07:07:05;4.35;;;3.95;;
22166;SDS011;11249;52.468;13.776;2023-07-16T07:09:32;4.03;;;3.65;;
22166;SDS011;11249;52.468;13.776;2023-07-16T07:11:59;4.53;;;3.65;;
22166;SDS011;11249;52.468;13.776;2023-07-16T07:14:26;4.97;;;3.63;;
22166;SDS011;11249;52.468;13.776;2023-07-16T07:16:53;8.10;;;3.38;;
22166;SDS011;11249;52.468;13.776;2023-07-16T07:19:19;5.57;;;3.25;;
22166;SDS011;11249;52.468;13.776;2023-07-16T07:21:46;4.68;;;3.97;;
22166;SDS011;11249;52.468;13.776;2023-07-16T07:24:13;3.83;;;3.53;;
22166;SDS011;11249;52.468;13.776;2023-07-16T07:26:40;5.55;;;3.78;;
22166;SDS011;11249;52.468;13.776;2023-07-16T07:29:06;5.82;;;4.07;;
22166;SDS011;11249;52.468;13.776;2023-07-16T07:31:33;6.57;;;3.70;;
22166;SDS011;11249;52.468;13.776;2023-07-16T07:34:00;4.32;;;3.75;;
22166;SDS011;11249;52.468;13.776;2023-07-16T07:36:28;4.60;;;3.10;;
22166;SDS011;11249;52.468;13.776;2023-07-16T07:38:54;3.35;;;3.05;;
22166;SDS011;11249;52.468;13.776;2023-07-16T07:41:21;4.32;;;3.58;;
22166;SDS011;11249;52.468;13.776;2023-07-16T07:43:48;5.75;;;3.60;;
22166;SDS011;11249;52.468;13.776;2023-07-16T07:46:14;3.42;;;3.13;;
22166;SDS011;11249;52.468;13.776;2023-07-16T07:48:42;5.18;;;3.22;;
22166;SDS011;11249;52.468;13.776;2023-07-16T07:51:08;3.65;;;3.10;;
22166;SDS011;11249;52.468;13.776;2023-07-16T07:53:35;4.05;;;3.45;;
22166;SDS011;11249;52.468;13.776;2023-07-16T07:56:02;5.10;;;3.30;;
22166;SDS011;11249;52.468;13.776;2023-07-16T07:58:29;6.40;;;3.58;;
22166;SDS011;11249;52.468;13.776;2023-07-16T08:00:55;5.57;;;3.30;;
22166;SDS011;11249;52.468;13.776;2023-07-16T08:03:22;4.18;;;3.30;;
22166;SDS011;11249;52.468;13.776;2023-07-16T08:05:49;5.63;;;3.17;;
22166;SDS011;11249;52.468;13.776;2023-07-16T08:08:16;3.55;;;3.08;;
22166;SDS011;11249;52.468;13.776;2023-07-16T08:10:43;5.05;;;3.33;;
22166;SDS011;11249;52.468;13.776;2023-07-16T08:13:12;4.10;;;3.37;;
22166;SDS011;11249;52.468;13.776;2023-07-16T08:15:38;5.53;;;3.25;;
22166;SDS011;11249;52.468;13.776;2023-07-16T08:18:05;5.78;;;2.88;;
22166;SDS011;11249;52.468;13.776;2023-07-16T08:20:32;4.03;;;3.15;;
22166;SDS011;11249;52.468;13.776;2023-07-16T08:22:59;7.50;;;3.47;;
22166;SDS011;11249;52.468;13.776;2023-07-16T08:25:26;5.30;;;3.22;;
22166;SDS011;11249;52.468;13.776;2023-07-16T08:27:53;5.18;;;3.15;;
22166;SDS011;11249;52.468;13.776;2023-07-16T08:30:20;4.95;;;3.45;;
22166;SDS011;11249;52.468;13.776;2023-07-16T08:32:46;5.93;;;3.10;;
22166;SDS011;11249;52.468;13.776;2023-07-16T08:35:13;4.45;;;3.38;;
22166;SDS011;11249;52.468;13.776;2023-07-16T08:37:43;3.83;;;3.00;;
22166;SDS011;11249;52.468;13.776;2023-07-16T08:40:10;7.03;;;3.50;;
22166;SDS011;11249;52.468;13.776;2023-07-16T08:42:39;2.92;;;2.70;;
22166;SDS011;11249;52.468;13.776;2023-07-16T08:45:06;3.60;;;3.30;;
22166;SDS011;11249;52.468;13.776;2023-07-16T08:47:35;4.43;;;3.22;;
22166;SDS011;11249;52.468;13.776;2023-07-16T08:50:02;4.90;;;3.25;;
22166;SDS011;11249;52.468;13.776;2023-07-16T08:52:30;3.63;;;2.80;;
22166;SDS011;11249;52.468;13.776;2023-07-16T08:54:56;8.98;;;3.10;;
22166;SDS011;11249;52.468;13.776;2023-07-16T08:57:23;4.18;;;2.55;;
22166;SDS011;11249;52.468;13.776;2023-07-16T08:59:52;4.68;;;3.00;;
22166;SDS011;11249;52.468;13.776;2023-07-16T09:02:20;7.28;;;2.83;;
22166;SDS011;11249;52.468;13.776;2023-07-16T09:04:47;5.15;;;3.03;;
22166;SDS011;11249;52.468;13.776;2023-07-16T09:07:15;3.70;;;2.70;;
22166;SDS011;11249;52.468;13.776;2023-07-16T09:09:42;3.30;;;3.00;;
22166;SDS011;11249;52.468;13.776;2023-07-16T09:12:12;5.78;;;2.92;;
22166;SDS011;11249;52.468;13.776;2023-07-16T09:14:42;7.13;;;2.58;;
22166;SDS011;11249;52.468;13.776;2023-07-16T09:17:10;6.50;;;2.58;;
22166;SDS011;11249;52.468;13.776;2023-07-16T09:19:36;3.40;;;2.50;;
22166;SDS011;11249;52.468;13.776;2023-07-16T09:22:03;4.75;;;2.20;;
22166;SDS011;11249;52.468;13.776;2023-07-16T09:24:31;4.63;;;2.30;;
22166;SDS011;11249;52.468;13.776;2023-07-16T09:26:58;3.72;;;2.53;;
22166;SDS011;11249;52.468;13.776;2023-07-16T09:29:28;3.35;;;2.22;;
22166;SDS011;11249;52.468;13.776;2023-07-16T09:31:59;3.15;;;2.35;;
22166;SDS011;11249;52.468;13.776;2023-07-16T09:34:28;4.90;;;2.20;;
22166;SDS011;11249;52.468;13.776;2023-07-16T09:36:56;5.53;;;2.55;;
22166;SDS011;11249;52.468;13.776;2023-07-16T09:39:23;3.15;;;2.28;;
22166;SDS011;11249;52.468;13.776;2023-07-16T09:41:52;3.38;;;2.28;;
22166;SDS011;11249;52.468;13.776;2023-07-16T09:44:19;4.53;;;2.50;;
22166;SDS011;11249;52.468;13.776;2023-07-16T09:46:46;3.40;;;2.10;;
22166;SDS011;11249;52.468;13.776;2023-07-16T09:49:14;5.68;;;2.75;;
22166;SDS011;11249;52.468;13.776;2023-07-16T09:51:42;5.30;;;2.25;;
22166;SDS011;11249;52.468;13.776;2023-07-16T09:54:11;5.85;;;2.35;;
22166;SDS011;11249;52.468;13.776;2023-07-16T09:56:41;4.85;;;2.40;;
22166;SDS011;11249;52.468;13.776;2023-07-16T09:59:16;3.45;;;2.10;;
22166;SDS011;11249;52.468;13.776;2023-07-16T10:01:45;6.13;;;2.53;;
22166;SDS011;11249;52.468;13.776;2023-07-16T10:04:13;4.85;;;2.30;;
22166;SDS011;11249;52.468;13.776;2023-07-16T10:06:55;5.22;;;2.88;;
22166;SDS011;11249;52.468;13.776;2023-07-16T10:12:07;3.97;;;2.60;;
22166;SDS011;11249;52.468;13.776;2023-07-16T10:14:40;3.97;;;2.72;;
22166;SDS011;11249;52.468;13.776;2023-07-16T10:17:21;3.40;;;2.03;;
22166;SDS011;11249;52.468;13.776;2023-07-16T10:20:02;4.93;;;2.53;;
22166;SDS011;11249;52.468;13.776;2023-07-16T10:22:40;4.30;;;2.42;;
22166;SDS011;11249;52.468;13.776;2023-07-16T10:27:44;3.35;;;1.85;;
22166;SDS011;11249;52.468;13.776;2023-07-16T10:30:12;3.25;;;2.60;;
22166;SDS011;11249;52.468;13.776;2023-07-16T10:32:39;4.97;;;2.58;;
22166;SDS011;11249;52.468;13.776;2023-07-16T10:35:07;3.65;;;2.17;;
22166;SDS011;11249;52.468;13.776;2023-07-16T10:37:37;3.95;;;2.40;;
22166;SDS011;11249;52.468;13.776;2023-07-16T10:40:05;2.50;;;2.13;;
22166;SDS011;11249;52.468;13.776;2023-07-16T10:42:36;3.03;;;2.17;;
22166;SDS011;11249;52.468;13.776;2023-07-16T10:45:05;3.95;;;2.63;;
22166;SDS011;11249;52.468;13.776;2023-07-16T10:47:33;2.75;;;2.10;;
22166;SDS011;11249;52.468;13.776;2023-07-16T10:50:05;4.07;;;2.35;;
22166;SDS011;11249;52.468;13.776;2023-07-16T10:52:34;4.75;;;2.45;;
22166;SDS011;11249;52.468;13.776;2023-07-16T10:55:02;3.55;;;2.30;;
22166;SDS011;11249;52.468;13.776;2023-07-16T10:57:29;3.22;;;2.22;;
22166;SDS011;11249;52.468;13.776;2023-07-16T10:59:56;3.40;;;2.60;;
22166;SDS011;11249;52.468;13.776;2023-07-16T11:02:24;4.50;;;2.47;;
22166;SDS011;11249;52.468;13.776;2023-07-16T11:04:52;3.03;;;2.38;;
22166;SDS011;11249;52.468;13.776;2023-07-16T11:07:20;6.50;;;2.70;;
22166;SDS011;11249;52.468;13.776;2023-07-16T11:09:48;3.97;;;2.55;;
22166;SDS011;11249;52.468;13.776;2023-07-16T11:12:18;3.65;;;2.10;;
22166;SDS011;11249;52.468;13.776;2023-07-16T11:14:48;4.57;;;2.90;;
22166;SDS011;11249;52.468;13.776;2023-07-16T11:17:19;4.35;;;2.50;;
22166;SDS011;11249;52.468;13.776;2023-07-16T11:19:49;3.78;;;2.45;;
22166;SDS011;11249;52.468;13.776;2023-07-16T11:22:17;3.75;;;2.15;;
22166;SDS011;11249;52.468;13.776;2023-07-16T11:24:45;7.00;;;3.00;;
22166;SDS011;11249;52.468;13.776;2023-07-16T11:27:14;3.97;;;2.30;;
22166;SDS011;11249;52.468;13.776;2023-07-16T11:29:54;6.93;;;2.30;;
22166;SDS011;11249;52.468;13.776;2023-07-16T11:35:00;3.22;;;2.40;;
22166;SDS011;11249;52.468;13.776;2023-07-16T11:37:28;6.07;;;2.55;;
22166;SDS011;11249;52.468;13.776;2023-07-16T11:39:58;3.45;;;2.22;;
22166;SDS011;11249;52.468;13.776;2023-07-16T11:42:36;2.60;;;2.28;;
22166;SDS011;11249;52.468;13.776;2023-07-16T11:45:04;4.32;;;2.58;;
22166;SDS011;11249;52.468;13.776;2023-07-16T11:47:41;4.07;;;2.35;;
22166;SDS011;11249;52.468;13.776;2023-07-16T11:50:10;2.90;;;2.53;;
22166;SDS011;11249;52.468;13.776;2023-07-16T11:52:38;4.13;;;2.38;;
22166;SDS011;11249;52.468;13.776;2023-07-16T11:55:05;4.15;;;2.17;;
22166;SDS011;11249;52.468;13.776;2023-07-16T11:57:32;5.63;;;2.35;;
22166;SDS011;11249;52.468;13.776;2023-07-16T11:59:59;2.65;;;2.25;;
22166;SDS011;11249;52.468;13.776;2023-07-16T12:02:26;3.63;;;2.22;;
22166;SDS011;11249;52.468;13.776;2023-07-16T12:04:55;7.22;;;2.60;;
22166;SDS011;11249;52.468;13.776;2023-07-16T12:07:37;4.88;;;2.63;;
22166;SDS011;11249;52.468;13.776;2023-07-16T12:10:05;4.95;;;2.53;;
22166;SDS011;11249;52.468;13.776;2023-07-16T12:12:33;3.03;;;2.30;;
22166;SDS011;11249;52.468;13.776;2023-07-16T12:15:04;3.33;;;2.28;;
22166;SDS011;11249;52.468;13.776;2023-07-16T12:17:32;3.65;;;2.42;;
22166;SDS011;11249;52.468;13.776;2023-07-16T12:19:59;4.55;;;2.70;;
22166;SDS011;11249;52.468;13.776;2023-07-16T12:22:27;4.55;;;2.65;;
22166;SDS011;11249;52.468;13.776;2023-07-16T12:24:54;3.78;;;2.50;;
22166;SDS011;11249;52.468;13.776;2023-07-16T12:27:21;4.72;;;2.33;;
22166;SDS011;11249;52.468;13.776;2023-07-16T12:29:48;2.33;;;1.73;;
22166;SDS011;11249;52.468;13.776;2023-07-16T12:32:14;4.93;;;2.20;;
22166;SDS011;11249;52.468;13.776;2023-07-16T12:34:41;3.38;;;2.33;;
22166;SDS011;11249;52.468;13.776;2023-07-16T12:37:08;3.20;;;2.00;;
22166;SDS011;11249;52.468;13.776;2023-07-16T12:39:36;3.75;;;2.08;;
22166;SDS011;11249;52.468;13.776;2023-07-16T12:42:03;3.53;;;1.98;;
22166;SDS011;11249;52.468;13.776;2023-07-16T12:44:30;5.93;;;2.30;;
22166;SDS011;11249;52.468;13.776;2023-07-16T12:46:57;4.60;;;2.20;;
22166;SDS011;11249;52.468;13.776;2023-07-16T12:49:24;3.67;;;2.15;;
22166;SDS011;11249;52.468;13.776;2023-07-16T12:51:50;5.57;;;2.60;;
22166;SDS011;11249;52.468;13.776;2023-07-16T12:54:17;4.07;;;2.33;;
22166;SDS011;11249;52.468;13.776;2023-07-16T12:56:44;4.18;;;2.13;;
22166;SDS011;11249;52.468;13.776;2023-07-16T12:59:11;3.75;;;1.98;;
22166;SDS011;11249;52.468;13.776;2023-07-16T13:01:37;3.38;;;2.17;;
22166;SDS011;11249;52.468;13.776;2023-07-16T13:04:04;4.25;;;2.42;;
22166;SDS011;11249;52.468;13.776;2023-07-16T13:06:31;3.17;;;2.13;;
22166;SDS011;11249;52.468;13.776;2023-07-16T13:08:58;4.88;;;2.30;;
22166;SDS011;11249;52.468;13.776;2023-07-16T13:11:25;4.88;;;2.50;;
22166;SDS011;11249;52.468;13.776;2023-07-16T13:13:52;3.08;;;1.95;;
22166;SDS011;11249;52.468;13.776;2023-07-16T13:16:19;7.38;;;2.22;;
22166;SDS011;11249;52.468;13.776;2023-07-16T13:18:46;3.40;;;2.30;;
22166;SDS011;11249;52.468;13.776;2023-07-16T13:21:13;6.38;;;2.22;;
22166;SDS011;11249;52.468;13.776;2023-07-16T13:23:39;7.38;;;2.22;;
22166;SDS011;11249;52.468;13.776;2023-07-16T13:26:06;5.70;;;2.33;;
22166;SDS011;11249;52.468;13.776;2023-07-16T13:28:33;3.55;;;1.92;;
22166;SDS011;11249;52.468;13.776;2023-07-16T13:30:59;4.82;;;2.47;;
22166;SDS011;11249;52.468;13.776;2023-07-16T13:33:26;2.97;;;1.98;;
22166;SDS011;11249;52.468;13.776;2023-07-16T13:35:53;3.17;;;2.10;;
22166;SDS011;11249;52.468;13.776;2023-07-16T13:38:20;3.75;;;2.47;;
22166;SDS011;11249;52.468;13.776;2023-07-16T13:40:46;4.85;;;2.30;;
22166;SDS011;11249;52.468;13.776;2023-07-16T13:43:13;3.38;;;2.17;;
22166;SDS011;11249;52.468;13.776;2023-07-16T13:45:40;2.72;;;1.70;;
22166;SDS011;11249;52.468;13.776;2023-07-16T13:48:07;4.65;;;2.67;;
22166;SDS011;11249;52.468;13.776;2023-07-16T13:50:34;6.05;;;2.45;;
22166;SDS011;11249;52.468;13.776;2023-07-16T13:53:01;2.80;;;1.63;;
22166;SDS011;11249;52.468;13.776;2023-07-16T13:55:28;3.45;;;1.98;;
22166;SDS011;11249;52.468;13.776;2023-07-16T13:57:55;4.10;;;2.30;;
22166;SDS011;11249;52.468;13.776;2023-07-16T14:00:22;5.47;;;2.15;;
22166;SDS011;11249;52.468;13.776;2023-07-16T14:02:49;4.93;;;2.35;;
22166;SDS011;11249;52.468;13.776;2023-07-16T14:05:15;6.55;;;2.28;;
22166;SDS011;11249;52.468;13.776;2023-07-16T14:07:42;3.08;;;1.67;;
22166;SDS011;11249;52.468;13.776;2023-07-16T14:10:09;4.53;;;1.92;;
22166;SDS011;11249;52.468;13.776;2023-07-16T14:12:36;6.78;;;2.45;;
22166;SDS011;11249;52.468;13.776;2023-07-16T14:15:03;3.83;;;2.88;;
22166;SDS011;11249;52.468;13.776;2023-07-16T14:17:30;3.03;;;2.35;;
22166;SDS011;11249;52.468;13.776;2023-07-16T14:19:57;2.80;;;2.50;;
22166;SDS011;11249;52.468;13.776;2023-07-16T14:22:24;7.03;;;3.35;;
22166;SDS011;11249;52.468;13.776;2023-07-16T14:24:54;3.80;;;2.20;;
22166;SDS011;11249;52.468;13.776;2023-07-16T14:27:21;5.03;;;2.20;;
22166;SDS011;11249;52.468;13.776;2023-07-16T14:29:49;4.97;;;2.05;;
22166;SDS011;11249;52.468;13.776;2023-07-16T14:32:30;4.75;;;2.45;;
22166;SDS011;11249;52.468;13.776;2023-07-16T14:34:58;6.97;;;2.30;;
22166;SDS011;11249;52.468;13.776;2023-07-16T14:37:25;3.72;;;2.42;;
22166;SDS011;11249;52.468;13.776;2023-07-16T14:39:52;3.72;;;1.98;;
22166;SDS011;11249;52.468;13.776;2023-07-16T14:42:21;5.32;;;2.25;;
22166;SDS011;11249;52.468;13.776;2023-07-16T14:47:15;3.95;;;1.85;;
22166;SDS011;11249;52.468;13.776;2023-07-16T14:49:43;4.60;;;2.13;;
22166;SDS011;11249;52.468;13.776;2023-07-16T14:52:10;7.90;;;2.25;;